createdAt,value
2019-02-09T00:00:30.606Z,3.65
2019-02-09T00:03:01.035Z,3.22
2019-02-09T00:05:31.408Z,3.65
2019-02-09T00:08:01.685Z,3.27
2019-02-09T00:10:31.999Z,4.20
2019-02-09T00:13:02.342Z,3.25
2019-02-09T00:15:33.653Z,3.58
2019-02-09T00:18:04.513Z,3.15
2019-02-09T00:20:34.842Z,2.92
2019-02-09T00:23:05.969Z,3.40
2019-02-09T00:25:36.309Z,3.45
2019-02-09T00:28:06.635Z,2.87
2019-02-09T00:30:37.002Z,3.47
2019-02-09T00:33:07.315Z,3.47
2019-02-09T00:35:37.676Z,3.27
2019-02-09T00:38:07.981Z,3.35
2019-02-09T00:40:38.283Z,3.65
2019-02-09T00:43:08.679Z,3.58
2019-02-09T00:45:39.018Z,3.55
2019-02-09T00:48:09.341Z,3.60
2019-02-09T00:50:39.681Z,3.20
2019-02-09T00:53:09.971Z,3.20
2019-02-09T00:55:40.305Z,2.98
2019-02-09T00:58:10.701Z,2.75
2019-02-09T01:00:41.579Z,3.40
2019-02-09T01:03:12.071Z,2.60
2019-02-09T01:05:44.541Z,3.12
2019-02-09T01:08:15.635Z,2.83
2019-02-09T01:10:46.174Z,3.25
2019-02-09T01:13:16.523Z,3.30
2019-02-09T01:15:46.905Z,2.72
2019-02-09T01:18:17.243Z,2.72
2019-02-09T01:20:47.604Z,2.72
2019-02-09T01:23:17.926Z,3.50
2019-02-09T01:25:48.319Z,3.42
2019-02-09T01:28:18.624Z,3.15
2019-02-09T01:30:49.024Z,2.72
2019-02-09T01:33:19.314Z,3.12
2019-02-09T01:35:49.667Z,2.67
2019-02-09T01:38:19.970Z,2.90
2019-02-09T01:40:50.336Z,2.70
2019-02-09T01:43:20.665Z,3.12
2019-02-09T01:45:50.994Z,3.22
2019-02-09T01:48:21.320Z,3.10
2019-02-09T01:50:51.684Z,3.15
2019-02-09T01:53:22.035Z,3.10
2019-02-09T01:55:52.391Z,2.95
2019-02-09T01:58:22.664Z,3.33
2019-02-09T02:00:53.023Z,2.67
2019-02-09T02:03:23.331Z,3.22
2019-02-09T02:05:53.649Z,2.90
2019-02-09T02:08:23.976Z,3.02
2019-02-09T02:10:54.413Z,3.00
2019-02-09T02:13:24.703Z,2.62
2019-02-09T02:15:55.059Z,2.90
2019-02-09T02:18:25.391Z,2.60
2019-02-09T02:20:55.787Z,3.05
2019-02-09T02:23:26.067Z,2.62
2019-02-09T02:25:56.414Z,2.70
2019-02-09T02:28:26.707Z,2.80
2019-02-09T02:30:57.077Z,2.77
2019-02-09T02:33:27.353Z,3.42
2019-02-09T02:35:58.749Z,2.98
2019-02-09T02:38:29.119Z,2.87
2019-02-09T02:40:59.460Z,2.60
2019-02-09T02:43:29.803Z,2.90
2019-02-09T02:46:00.152Z,2.85
2019-02-09T02:48:30.491Z,2.50
2019-02-09T02:51:02.468Z,2.40
2019-02-09T02:53:32.833Z,2.70
2019-02-09T02:56:03.375Z,2.62
2019-02-09T02:58:33.885Z,2.87
2019-02-09T03:01:04.358Z,3.00
2019-02-09T03:03:35.623Z,2.83
2019-02-09T03:06:06.131Z,3.10
2019-02-09T03:08:36.448Z,3.20
2019-02-09T03:11:06.898Z,3.62
2019-02-09T03:13:37.336Z,3.37
2019-02-09T03:16:07.659Z,3.60
2019-02-09T03:18:38.287Z,3.27
2019-02-09T03:21:08.624Z,3.65
2019-02-09T03:23:39.964Z,4.30
2019-02-09T03:26:10.475Z,3.80
2019-02-09T03:28:40.814Z,4.08
2019-02-09T03:31:11.244Z,3.70
2019-02-09T03:33:41.477Z,3.52
2019-02-09T03:36:11.812Z,4.25
2019-02-09T03:38:42.217Z,4.25
2019-02-09T03:41:12.590Z,4.22
2019-02-09T03:43:43.129Z,4.47
2019-02-09T03:46:13.523Z,4.15
2019-02-09T03:48:43.949Z,4.10
2019-02-09T03:51:14.267Z,4.10
2019-02-09T03:53:44.797Z,4.15
2019-02-09T03:56:15.203Z,3.87
2019-02-09T03:58:45.559Z,4.25
2019-02-09T04:01:15.907Z,4.22
2019-02-09T04:03:46.200Z,3.75
2019-02-09T04:06:16.590Z,3.95
2019-02-09T04:08:46.900Z,3.98
2019-02-09T04:11:17.223Z,4.10
2019-02-09T04:13:47.507Z,4.40
2019-02-09T04:16:17.844Z,4.40
2019-02-09T04:18:48.128Z,4.78
2019-02-09T04:21:18.608Z,3.60
2019-02-09T04:23:48.854Z,3.58
2019-02-09T04:26:19.563Z,3.58
2019-02-09T04:28:49.938Z,3.50
2019-02-09T04:31:20.283Z,3.50
2019-02-09T04:33:50.652Z,3.15
2019-02-09T04:36:21.028Z,2.87
2019-02-09T04:38:51.335Z,3.40
2019-02-09T04:41:21.679Z,3.35
2019-02-09T04:43:51.995Z,3.40
2019-02-09T04:46:22.341Z,2.80
2019-02-09T04:48:52.714Z,3.10
2019-02-09T04:51:23.027Z,3.22
2019-02-09T04:53:53.355Z,2.90
2019-02-09T04:56:23.709Z,3.10
2019-02-09T04:58:53.997Z,2.85
2019-02-09T05:01:24.406Z,2.98
2019-02-09T05:03:54.763Z,2.50
2019-02-09T05:06:25.081Z,3.20
2019-02-09T05:08:55.384Z,2.85
2019-02-09T05:11:25.807Z,2.45
2019-02-09T05:13:56.055Z,2.60
2019-02-09T05:16:26.404Z,3.00
2019-02-09T05:18:57.767Z,2.60
2019-02-09T05:21:28.200Z,2.80
2019-02-09T05:23:58.487Z,3.10
2019-02-09T05:26:28.887Z,3.50
2019-02-09T05:28:59.241Z,3.75
2019-02-09T05:31:29.601Z,2.80
2019-02-09T05:33:59.861Z,3.70
2019-02-09T05:36:30.194Z,3.70
2019-02-09T05:39:00.485Z,3.60
2019-02-09T05:41:30.810Z,3.77
2019-02-09T05:44:01.133Z,2.83
2019-02-09T05:46:31.466Z,3.95
2019-02-09T05:49:01.810Z,4.08
2019-02-09T05:51:33.171Z,3.80
2019-02-09T05:54:03.455Z,3.72
2019-02-09T05:56:33.815Z,3.87
2019-02-09T05:59:04.095Z,3.85
2019-02-09T06:01:34.476Z,3.27
2019-02-09T06:04:05.126Z,3.60
2019-02-09T06:06:35.451Z,3.30
2019-02-09T06:09:08.206Z,4.05
2019-02-09T06:11:38.590Z,4.40
2019-02-09T06:14:08.897Z,3.62
2019-02-09T06:16:39.264Z,3.52
2019-02-09T06:19:10.647Z,3.83
2019-02-09T06:21:40.972Z,3.72
2019-02-09T06:24:11.238Z,3.62
2019-02-09T06:26:41.608Z,3.22
2019-02-09T06:29:11.884Z,3.40
2019-02-09T06:31:42.281Z,3.12
2019-02-09T06:34:12.591Z,3.65
2019-02-09T06:36:42.960Z,3.27
2019-02-09T06:39:13.304Z,3.65
2019-02-09T06:41:43.628Z,3.65
2019-02-09T06:44:13.924Z,3.58
2019-02-09T06:46:44.263Z,3.30
2019-02-09T06:49:14.552Z,2.87
2019-02-09T06:51:44.873Z,3.02
2019-02-09T06:54:15.271Z,3.00
2019-02-09T06:56:46.248Z,3.40
2019-02-09T06:59:16.652Z,3.55
2019-02-09T07:01:48.744Z,3.08
2019-02-09T07:04:18.911Z,3.20
2019-02-09T07:06:49.279Z,3.12
2019-02-09T07:09:19.641Z,3.40
2019-02-09T07:11:50.074Z,3.27
2019-02-09T07:14:20.391Z,3.92
2019-02-09T07:16:50.748Z,2.90
2019-02-09T07:19:21.053Z,3.08
2019-02-09T07:21:51.407Z,3.10
2019-02-09T07:24:21.697Z,2.98
2019-02-09T07:26:52.152Z,2.83
2019-02-09T07:29:22.428Z,3.10
2019-02-09T07:31:56.463Z,2.75
2019-02-09T07:34:24.768Z,2.72
2019-02-09T07:36:55.082Z,2.45
2019-02-09T07:39:25.368Z,2.72
2019-02-09T07:41:55.720Z,2.52
2019-02-09T07:44:26.052Z,2.60
2019-02-09T07:46:56.402Z,2.55
2019-02-09T07:49:28.312Z,2.37
2019-02-09T07:51:58.656Z,2.47
2019-02-09T07:54:28.992Z,2.20
2019-02-09T07:56:59.387Z,2.33
2019-02-09T07:59:29.703Z,2.27
2019-02-09T08:02:04.660Z,2.83
2019-02-09T08:04:31.982Z,2.55
2019-02-09T08:07:02.436Z,2.40
2019-02-09T08:09:32.756Z,2.37
2019-02-09T08:12:03.075Z,2.65
2019-02-09T08:14:33.360Z,3.05
2019-02-09T08:17:03.876Z,3.12
2019-02-09T08:19:34.322Z,3.00
2019-02-09T08:22:04.925Z,2.83
2019-02-09T08:24:35.218Z,2.65
2019-02-09T08:27:05.704Z,2.92
2019-02-09T08:29:36.028Z,2.37
2019-02-09T08:32:12.536Z,2.58
2019-02-09T08:34:38.495Z,2.27
2019-02-09T08:37:08.851Z,2.15
2019-02-09T08:39:39.157Z,2.22
2019-02-09T08:42:09.545Z,2.45
2019-02-09T08:44:39.836Z,2.80
2019-02-09T08:47:10.251Z,3.17
2019-02-09T08:49:40.640Z,2.70
2019-02-09T08:52:11.046Z,2.72
2019-02-09T08:54:41.406Z,2.58
2019-02-09T08:57:11.772Z,2.50
2019-02-09T08:59:42.071Z,3.05
2019-02-09T09:02:20.162Z,2.87
2019-02-09T09:04:44.362Z,2.33
2019-02-09T09:07:14.724Z,2.00
2019-02-09T09:09:45.014Z,2.33
2019-02-09T09:12:16.375Z,1.67
2019-02-09T09:14:46.796Z,1.70
2019-02-09T09:17:17.162Z,1.75
2019-02-09T09:19:47.479Z,1.85
2019-02-09T09:22:17.800Z,1.80
2019-02-09T09:24:48.169Z,1.82
2019-02-09T09:27:18.550Z,1.75
2019-02-09T09:29:48.878Z,2.22
2019-02-09T09:32:19.238Z,2.12
2019-02-09T09:34:49.520Z,1.95
2019-02-09T09:37:19.845Z,1.70
2019-02-09T09:39:50.133Z,1.80
2019-02-09T09:42:21.535Z,1.77
2019-02-09T09:44:57.006Z,1.90
2019-02-09T09:47:27.398Z,1.77
2019-02-09T09:49:57.741Z,1.57
2019-02-09T09:52:28.100Z,2.02
2019-02-09T09:54:58.389Z,1.80
2019-02-09T09:57:28.805Z,2.05
2019-02-09T09:59:59.151Z,1.90
2019-02-09T10:02:36.447Z,2.00
2019-02-09T10:05:01.543Z,1.75
2019-02-09T10:07:32.982Z,1.90
2019-02-09T10:10:03.289Z,1.87
2019-02-09T10:12:33.635Z,2.08
2019-02-09T10:15:04.450Z,1.90
2019-02-09T10:17:34.787Z,1.90
2019-02-09T10:20:07.005Z,1.60
2019-02-09T10:22:37.342Z,1.70
2019-02-09T10:25:08.322Z,1.77
2019-02-09T10:27:38.767Z,1.52
2019-02-09T10:30:12.397Z,1.85
2019-02-09T10:32:44.579Z,1.47
2019-02-09T10:35:15.261Z,1.60
2019-02-09T10:37:45.567Z,1.72
2019-02-09T10:40:24.570Z,1.92
2019-02-09T10:42:55.004Z,1.62
2019-02-09T10:45:27.043Z,1.50
2019-02-09T10:47:57.596Z,2.10
2019-02-09T10:50:30.220Z,1.52
2019-02-09T10:53:00.548Z,1.65
2019-02-09T10:55:30.965Z,1.62
2019-02-09T10:58:01.280Z,1.60
2019-02-09T11:00:37.339Z,1.52
2019-02-09T11:03:08.494Z,2.10
2019-02-09T11:05:38.915Z,1.60
2019-02-09T11:08:09.343Z,1.57
2019-02-09T11:10:39.650Z,1.42
2019-02-09T11:13:10.064Z,1.57
2019-02-09T11:15:40.463Z,1.20
2019-02-09T11:18:10.918Z,1.30
2019-02-09T11:20:41.268Z,1.60
2019-02-09T11:23:11.766Z,1.77
2019-02-09T11:25:42.041Z,1.82
2019-02-09T11:28:12.585Z,1.45
2019-02-09T11:30:42.957Z,1.70
2019-02-09T11:33:13.305Z,1.90
2019-02-09T11:35:43.631Z,1.92
2019-02-09T11:38:13.943Z,1.30
2019-02-09T11:40:44.221Z,1.52
2019-02-09T11:43:14.544Z,1.67
2019-02-09T11:45:44.838Z,1.50
2019-02-09T11:48:15.163Z,1.30
2019-02-09T11:50:45.495Z,1.52
2019-02-09T11:53:15.854Z,1.67
2019-02-09T11:55:46.258Z,1.67
2019-02-09T11:58:16.640Z,1.40
2019-02-09T12:00:49.989Z,1.72
2019-02-09T12:03:20.432Z,1.47
2019-02-09T12:05:51.509Z,1.55
2019-02-09T12:08:21.950Z,1.62
2019-02-09T12:10:52.248Z,1.42
2019-02-09T12:13:22.586Z,1.95
2019-02-09T12:15:52.887Z,1.77
2019-02-09T12:18:23.279Z,1.57
2019-02-09T12:20:53.576Z,1.35
2019-02-09T12:23:23.919Z,1.47
2019-02-09T12:25:54.225Z,1.40
2019-02-09T12:28:24.592Z,1.40
2019-02-09T12:30:54.939Z,1.42
2019-02-09T12:33:25.369Z,1.62
2019-02-09T12:35:55.834Z,1.50
2019-02-09T12:38:26.142Z,1.35
2019-02-09T12:40:56.445Z,1.50
2019-02-09T12:43:26.819Z,1.70
2019-02-09T12:45:57.131Z,1.37
2019-02-09T12:48:27.499Z,1.55
2019-02-09T12:50:57.832Z,1.30
2019-02-09T12:53:28.278Z,1.40
2019-02-09T12:55:58.808Z,1.60
2019-02-09T12:58:29.172Z,1.47
2019-02-09T13:00:59.459Z,1.15
2019-02-09T13:03:31.257Z,2.00
2019-02-09T13:06:01.899Z,1.32
2019-02-09T13:08:32.249Z,1.40
2019-02-09T13:11:02.569Z,1.70
2019-02-09T13:13:33.186Z,1.70
2019-02-09T13:16:03.449Z,1.42
2019-02-09T13:18:33.794Z,1.50
2019-02-09T13:21:04.479Z,1.50
2019-02-09T13:23:34.848Z,1.50
2019-02-09T13:26:05.340Z,1.35
2019-02-09T13:28:35.715Z,1.20
2019-02-09T13:31:06.023Z,1.50
2019-02-09T13:33:39.035Z,1.30
2019-02-09T13:36:09.276Z,1.60
2019-02-09T13:38:39.590Z,1.40
2019-02-09T13:41:09.912Z,1.25
2019-02-09T13:43:40.197Z,1.20
2019-02-09T13:46:10.491Z,1.50
2019-02-09T13:48:40.851Z,1.22
2019-02-09T13:51:11.154Z,1.67
2019-02-09T13:53:41.532Z,1.35
2019-02-09T13:56:11.807Z,1.40
2019-02-09T13:58:42.140Z,1.30
2019-02-09T14:01:12.552Z,1.50
2019-02-09T14:03:46.962Z,1.40
2019-02-09T14:06:14.807Z,1.00
2019-02-09T14:08:45.136Z,1.57
2019-02-09T14:11:15.425Z,1.35
2019-02-09T14:13:45.826Z,1.40
2019-02-09T14:16:16.139Z,1.37
2019-02-09T14:18:48.166Z,1.42
2019-02-09T14:21:18.390Z,1.70
2019-02-09T14:23:48.746Z,1.30
2019-02-09T14:26:19.042Z,1.60
2019-02-09T14:28:49.361Z,1.40
2019-02-09T14:31:19.668Z,1.65
2019-02-09T14:33:55.145Z,1.50
2019-02-09T14:36:21.955Z,1.40
2019-02-09T14:38:52.305Z,1.52
2019-02-09T14:41:22.621Z,1.30
2019-02-09T14:43:53.014Z,1.52
2019-02-09T14:46:23.308Z,1.72
2019-02-09T14:48:53.649Z,1.50
2019-02-09T14:51:24.006Z,1.10
2019-02-09T14:53:54.394Z,1.30
2019-02-09T14:56:24.754Z,1.20
2019-02-09T14:58:55.073Z,1.90
2019-02-09T15:01:25.392Z,1.90
2019-02-09T15:04:02.671Z,2.20
2019-02-09T15:06:27.689Z,1.77
2019-02-09T15:08:58.014Z,1.60
2019-02-09T15:11:28.302Z,1.47
2019-02-09T15:13:58.675Z,1.75
2019-02-09T15:16:42.855Z,1.98
2019-02-09T15:19:13.534Z,2.02
2019-02-09T15:21:43.887Z,2.27
2019-02-09T15:24:14.274Z,2.37
2019-02-09T15:26:44.641Z,1.95
2019-02-09T15:29:14.929Z,1.90
2019-02-09T15:31:45.256Z,1.90
2019-02-09T15:34:15.595Z,1.75
2019-02-09T15:36:45.885Z,1.70
2019-02-09T15:39:16.256Z,1.82
2019-02-09T15:41:46.604Z,1.85
2019-02-09T15:44:17.059Z,1.40
2019-02-09T15:46:47.362Z,1.50
2019-02-09T15:49:17.728Z,1.55
2019-02-09T15:51:48.098Z,1.72
2019-02-09T15:54:18.420Z,1.67
2019-02-09T15:56:48.749Z,1.72
2019-02-09T15:59:19.130Z,1.75
2019-02-09T16:01:49.483Z,1.85
2019-02-09T16:04:19.855Z,1.70
2019-02-09T16:06:51.085Z,1.50
2019-02-09T16:09:21.455Z,2.00
2019-02-09T16:11:51.772Z,1.45
2019-02-09T16:14:22.192Z,1.60
2019-02-09T16:16:52.691Z,1.67
2019-02-09T16:19:23.065Z,1.70
2019-02-09T16:21:53.357Z,1.72
2019-02-09T16:24:23.707Z,1.95
2019-02-09T16:26:54.097Z,1.80
2019-02-09T16:29:24.441Z,2.00
2019-02-09T16:31:54.728Z,1.60
2019-02-09T16:34:25.720Z,1.72
2019-02-09T16:36:56.157Z,2.37
2019-02-09T16:39:26.554Z,2.15
2019-02-09T16:41:56.829Z,2.05
2019-02-09T16:44:27.182Z,2.12
2019-02-09T16:46:57.492Z,1.80
2019-02-09T16:49:27.874Z,2.08
2019-02-09T16:51:58.210Z,1.70
2019-02-09T16:54:28.603Z,1.85
2019-02-09T16:56:58.921Z,2.22
2019-02-09T16:59:29.271Z,2.33
2019-02-09T17:01:59.586Z,3.02
2019-02-09T17:04:33.248Z,2.75
2019-02-09T17:07:01.953Z,2.10
2019-02-09T17:09:32.260Z,2.17
2019-02-09T17:12:02.647Z,2.25
2019-02-09T17:14:32.997Z,2.40
2019-02-09T17:17:03.341Z,2.45
2019-02-09T17:19:33.681Z,2.55
2019-02-09T17:22:03.958Z,2.27
2019-02-09T17:24:34.295Z,1.80
2019-02-09T17:27:05.033Z,1.77
2019-02-09T17:29:35.349Z,1.77
2019-02-09T17:32:05.656Z,2.17
2019-02-09T17:34:40.830Z,1.95
2019-02-09T17:37:07.994Z,2.08
2019-02-09T17:39:57.397Z,1.70
2019-02-09T17:42:27.892Z,1.70
2019-02-09T17:44:58.209Z,1.92
2019-02-09T17:47:28.533Z,1.70
2019-02-09T17:49:58.822Z,2.05
2019-02-09T17:52:29.267Z,1.62
2019-02-09T17:54:59.584Z,2.02
2019-02-09T17:57:29.948Z,1.70
2019-02-09T18:00:00.298Z,1.92
2019-02-09T18:02:30.565Z,2.17
2019-02-09T18:05:00.976Z,1.72
2019-02-09T18:07:31.288Z,1.90
2019-02-09T18:10:01.653Z,2.17
2019-02-09T18:12:32.017Z,1.90
2019-02-09T18:15:02.439Z,1.62
2019-02-09T18:17:32.787Z,1.80
2019-02-09T18:20:03.150Z,1.75
2019-02-09T18:22:33.451Z,1.40
2019-02-09T18:25:04.123Z,1.70
2019-02-09T18:27:34.567Z,2.10
2019-02-09T18:30:07.646Z,1.65
2019-02-09T18:32:37.928Z,1.60
2019-02-09T18:35:09.072Z,1.92
2019-02-09T18:37:39.428Z,1.60
2019-02-09T18:40:12.165Z,1.90
2019-02-09T18:42:42.477Z,2.05
2019-02-09T18:45:14.618Z,1.98
2019-02-09T18:47:44.944Z,1.85
2019-02-09T18:50:17.127Z,2.42
2019-02-09T18:52:47.626Z,2.55
2019-02-09T18:55:22.295Z,2.40
2019-02-09T18:57:52.758Z,2.47
2019-02-09T19:00:25.728Z,2.20
2019-02-09T19:02:56.460Z,2.08
2019-02-09T19:05:26.825Z,2.10
2019-02-09T19:07:57.168Z,1.70
2019-02-09T19:10:28.069Z,1.98
2019-02-09T19:12:58.691Z,2.05
2019-02-09T19:15:29.263Z,1.70
2019-02-09T19:17:59.813Z,1.98
2019-02-09T19:20:35.731Z,2.00
2019-02-09T19:23:06.541Z,2.40
2019-02-09T19:25:37.123Z,1.77
2019-02-09T19:28:07.483Z,1.90
2019-02-09T19:30:37.922Z,2.12
2019-02-09T19:33:08.417Z,2.60
2019-02-09T19:35:38.844Z,3.12
2019-02-09T19:38:10.295Z,2.47
2019-02-09T19:40:40.631Z,2.10
2019-02-09T19:43:10.950Z,2.10
2019-02-09T19:45:41.418Z,2.00
2019-02-09T19:48:11.723Z,1.80
2019-02-09T19:50:42.065Z,2.10
2019-02-09T19:53:12.416Z,2.05
2019-02-09T19:55:42.755Z,2.05
2019-02-09T19:58:13.129Z,1.90
2019-02-09T20:00:44.923Z,1.52
2019-02-09T20:03:15.394Z,1.77
2019-02-09T20:05:45.745Z,1.85
2019-02-09T20:08:16.069Z,2.35
2019-02-09T20:10:46.447Z,1.87
2019-02-09T20:13:17.474Z,1.95
2019-02-09T20:15:47.884Z,1.62
2019-02-09T20:18:18.201Z,1.70
2019-02-09T20:20:48.573Z,1.45
2019-02-09T20:23:18.812Z,1.77
2019-02-09T20:25:49.243Z,1.82
2019-02-09T20:28:19.495Z,1.90
2019-02-09T20:30:49.872Z,1.87
2019-02-09T20:33:20.154Z,1.80
2019-02-09T20:35:50.530Z,2.20
2019-02-09T20:38:20.888Z,2.80
2019-02-09T20:40:54.910Z,2.02
2019-02-09T20:43:25.268Z,1.85
2019-02-09T20:45:55.610Z,2.08
2019-02-09T20:48:26.076Z,1.92
2019-02-09T20:50:56.394Z,2.05
2019-02-09T20:53:26.735Z,1.98
2019-02-09T20:55:57.107Z,2.20
2019-02-09T20:58:27.433Z,2.05
2019-02-09T21:00:57.760Z,1.98
2019-02-09T21:03:28.203Z,2.27
2019-02-09T21:05:58.568Z,2.50
2019-02-09T21:08:28.923Z,1.98
2019-02-09T21:10:59.339Z,1.77
2019-02-09T21:13:29.659Z,1.72
2019-02-09T21:16:00.031Z,1.77
2019-02-09T21:18:30.333Z,1.77
2019-02-09T21:21:00.723Z,1.60
2019-02-09T21:23:31.037Z,1.95
2019-02-09T21:26:01.398Z,1.60
2019-02-09T21:28:31.836Z,1.72
2019-02-09T21:31:02.203Z,1.70
2019-02-09T21:33:32.404Z,2.10
2019-02-09T21:36:02.792Z,1.75
2019-02-09T21:38:33.105Z,2.10
2019-02-09T21:41:03.526Z,1.87
2019-02-09T21:43:33.952Z,2.02
2019-02-09T21:46:04.463Z,1.77
2019-02-09T21:48:34.770Z,2.00
2019-02-09T21:51:05.142Z,1.77
2019-02-09T21:53:35.597Z,1.60
2019-02-09T21:56:06.057Z,1.82
2019-02-09T21:58:36.465Z,1.85
2019-02-09T22:01:07.912Z,1.80
2019-02-09T22:03:38.282Z,2.22
2019-02-09T22:06:08.691Z,2.00
2019-02-09T22:08:39.110Z,1.85
2019-02-09T22:11:09.515Z,1.82
2019-02-09T22:13:39.923Z,1.72
2019-02-09T22:16:11.335Z,1.70
2019-02-09T22:18:41.788Z,2.22
2019-02-09T22:21:12.367Z,1.85
2019-02-09T22:23:42.764Z,2.00
2019-02-09T22:26:13.508Z,2.10
2019-02-09T22:28:43.885Z,1.80
2019-02-09T22:31:21.508Z,2.08
2019-02-09T22:33:46.223Z,1.57
2019-02-09T22:36:16.615Z,1.95
2019-02-09T22:38:46.942Z,2.08
2019-02-09T22:41:17.309Z,1.85
2019-02-09T22:43:47.611Z,2.58
2019-02-09T22:46:17.963Z,1.77
2019-02-09T22:48:48.259Z,1.70
2019-02-09T22:51:18.641Z,1.77
2019-02-09T22:53:48.984Z,1.42
2019-02-09T22:56:19.406Z,1.90
2019-02-09T22:58:49.769Z,1.85
2019-02-09T23:01:47.927Z,2.22
2019-02-09T23:04:45.817Z,1.87
2019-02-09T23:07:21.981Z,1.87
2019-02-09T23:09:52.347Z,1.80
2019-02-09T23:12:22.813Z,2.00
2019-02-09T23:14:53.155Z,2.30
2019-02-09T23:17:23.610Z,1.90
2019-02-09T23:19:53.965Z,2.02
2019-02-09T23:22:24.356Z,2.27
2019-02-09T23:24:54.663Z,2.33
2019-02-09T23:27:25.077Z,2.25
2019-02-09T23:29:55.355Z,1.80
2019-02-09T23:32:25.741Z,1.92
2019-02-09T23:34:56.113Z,1.95
2019-02-09T23:37:26.525Z,2.00
2019-02-09T23:39:56.901Z,1.95
2019-02-09T23:42:27.259Z,2.22
2019-02-09T23:44:57.611Z,1.77
2019-02-09T23:47:28.156Z,2.52
2019-02-09T23:49:58.465Z,1.98
2019-02-09T23:52:28.869Z,2.10
2019-02-09T23:54:59.195Z,1.70
2019-02-09T23:57:29.615Z,2.00
